createdAt,value
2018-11-28T00:00:43.296Z,15.60
2018-11-28T00:03:12.177Z,17.10
2018-11-28T00:05:41.056Z,15.80
2018-11-28T00:08:15.555Z,15.80
2018-11-28T00:10:44.457Z,17.60
2018-11-28T00:13:13.324Z,15.33
2018-11-28T00:15:42.300Z,14.63
2018-11-28T00:18:11.182Z,16.17
2018-11-28T00:20:40.092Z,15.03
2018-11-28T00:23:08.969Z,15.43
2018-11-28T00:25:37.913Z,16.37
2018-11-28T00:28:06.804Z,15.10
2018-11-28T00:30:35.732Z,16.33
2018-11-28T00:33:04.689Z,17.17
2018-11-28T00:35:33.617Z,15.93
2018-11-28T00:38:02.509Z,16.27
2018-11-28T00:40:31.388Z,18.17
2018-11-28T00:43:00.274Z,16.17
2018-11-28T00:45:29.221Z,15.60
2018-11-28T00:47:58.109Z,17.13
2018-11-28T00:50:27.759Z,17.23
2018-11-28T00:52:56.656Z,19.77
2018-11-28T00:55:25.592Z,19.63
2018-11-28T00:57:54.476Z,15.10
2018-11-28T01:00:24.444Z,16.47
2018-11-28T01:02:53.348Z,17.83
2018-11-28T01:05:22.260Z,16.00
2018-11-28T01:07:52.320Z,15.37
2018-11-28T01:10:22.307Z,16.37
2018-11-28T01:12:51.896Z,18.63
2018-11-28T01:15:21.260Z,15.03
2018-11-28T01:17:50.157Z,14.93
2018-11-28T01:20:21.504Z,18.40
2018-11-28T01:22:50.432Z,14.17
2018-11-28T01:25:20.781Z,16.37
2018-11-28T01:27:50.926Z,13.80
2018-11-28T01:30:21.002Z,15.27
2018-11-28T01:32:49.989Z,15.27
2018-11-28T01:35:19.648Z,15.77
2018-11-28T01:37:48.618Z,13.60
2018-11-28T01:40:19.429Z,13.80
2018-11-28T01:42:48.376Z,13.93
2018-11-28T01:45:18.856Z,15.53
2018-11-28T01:47:47.774Z,15.40
2018-11-28T01:50:17.712Z,16.27
2018-11-28T01:52:46.624Z,17.07
2018-11-28T01:55:16.308Z,17.83
2018-11-28T01:57:45.201Z,17.97
2018-11-28T02:00:17.317Z,16.00
2018-11-28T02:02:46.750Z,16.07
2018-11-28T02:05:15.646Z,16.73
2018-11-28T02:07:44.563Z,16.20
2018-11-28T02:10:14.352Z,15.87
2018-11-28T02:12:43.275Z,19.17
2018-11-28T02:15:13.391Z,19.63
2018-11-28T02:17:42.316Z,18.50
2018-11-28T02:20:13.553Z,16.63
2018-11-28T02:22:42.501Z,16.90
2018-11-28T02:25:12.563Z,17.87
2018-11-28T02:27:41.515Z,16.30
2018-11-28T02:30:15.624Z,16.53
2018-11-28T02:32:44.822Z,17.47
2018-11-28T02:35:14.572Z,17.20
2018-11-28T02:37:43.488Z,16.50
2018-11-28T02:40:16.356Z,16.93
2018-11-28T02:42:45.773Z,16.10
2018-11-28T02:45:17.629Z,18.87
2018-11-28T02:47:46.630Z,16.63
2018-11-28T02:50:15.594Z,17.20
2018-11-28T02:52:44.557Z,27.60
2018-11-28T02:55:15.402Z,16.67
2018-11-28T02:57:45.330Z,16.23
2018-11-28T03:00:16.282Z,16.23
2018-11-28T03:02:45.256Z,14.50
2018-11-28T03:05:14.388Z,18.23
2018-11-28T03:07:43.349Z,16.80
2018-11-28T03:10:14.496Z,23.30
2018-11-28T03:12:43.467Z,17.10
2018-11-28T03:15:14.045Z,22.87
2018-11-28T03:17:42.958Z,24.05
2018-11-28T03:20:11.912Z,20.57
2018-11-28T03:22:40.885Z,24.93
2018-11-28T03:25:11.120Z,17.93
2018-11-28T03:27:40.036Z,18.30
2018-11-28T03:30:14.163Z,25.55
2018-11-28T03:32:43.016Z,25.30
2018-11-28T03:35:13.384Z,21.37
2018-11-28T03:37:42.329Z,26.95
2018-11-28T03:40:11.503Z,31.00
2018-11-28T03:42:40.573Z,17.23
2018-11-28T03:45:12.722Z,18.70
2018-11-28T03:47:42.192Z,19.73
2018-11-28T03:50:12.116Z,19.17
2018-11-28T03:52:41.022Z,18.23
2018-11-28T03:55:12.159Z,18.33
2018-11-28T03:57:41.178Z,16.87
2018-11-28T04:00:11.625Z,16.07
2018-11-28T04:02:40.551Z,15.80
2018-11-28T04:05:09.540Z,18.03
2018-11-28T04:07:38.484Z,15.43
2018-11-28T04:10:11.820Z,14.33
2018-11-28T04:12:41.293Z,14.50
2018-11-28T04:15:13.449Z,15.47
2018-11-28T04:17:42.407Z,15.93
2018-11-28T04:20:16.581Z,15.83
2018-11-28T04:22:45.568Z,16.07
2018-11-28T04:25:15.553Z,15.23
2018-11-28T04:27:44.516Z,16.97
2018-11-28T04:30:15.569Z,17.97
2018-11-28T04:32:44.627Z,34.40
2018-11-28T04:35:14.191Z,25.20
2018-11-28T04:37:44.116Z,25.43
2018-11-28T04:40:14.113Z,36.07
2018-11-28T04:42:43.277Z,21.17
2018-11-28T04:45:13.573Z,38.60
2018-11-28T04:47:42.524Z,42.13
2018-11-28T04:50:11.932Z,50.60
2018-11-28T04:52:40.866Z,43.63
2018-11-28T04:55:14.738Z,45.00
2018-11-28T04:57:43.868Z,37.05
2018-11-28T05:00:13.873Z,24.30
2018-11-28T05:02:42.851Z,31.50
2018-11-28T05:05:11.928Z,26.07
2018-11-28T05:07:41.432Z,26.68
2018-11-28T05:10:11.446Z,45.80
2018-11-28T05:12:40.378Z,49.10
2018-11-28T05:15:12.477Z,25.95
2018-11-28T05:17:41.501Z,47.03
2018-11-28T05:20:12.481Z,34.27
2018-11-28T05:22:41.426Z,33.23
2018-11-28T05:25:14.700Z,26.65
2018-11-28T05:27:43.645Z,21.07
2018-11-28T05:30:13.696Z,24.70
2018-11-28T05:32:42.689Z,23.57
2018-11-28T05:35:15.677Z,23.33
2018-11-28T05:37:44.672Z,29.60
2018-11-28T05:40:18.906Z,23.50
2018-11-28T05:42:48.459Z,32.73
2018-11-28T05:45:17.396Z,28.70
2018-11-28T05:47:46.342Z,25.50
2018-11-28T05:50:16.289Z,27.90
2018-11-28T05:52:45.229Z,23.18
2018-11-28T05:55:14.796Z,22.43
2018-11-28T05:57:44.143Z,26.23
2018-11-28T06:00:43.362Z,27.70
2018-11-28T06:03:13.084Z,25.83
2018-11-28T06:05:43.291Z,32.67
2018-11-28T06:08:12.194Z,23.40
2018-11-28T06:10:41.107Z,25.73
2018-11-28T06:13:10.042Z,36.25
2018-11-28T06:15:38.947Z,31.00
2018-11-28T06:18:08.899Z,22.57
2018-11-28T06:20:38.069Z,32.93
2018-11-28T06:23:10.587Z,44.75
2018-11-28T06:25:39.897Z,36.37
2018-11-28T06:28:10.328Z,41.65
2018-11-28T06:33:42.445Z,23.50
2018-11-28T06:36:21.693Z,34.92
2018-11-28T06:38:57.639Z,42.10
2018-11-28T06:42:25.643Z,31.05
2018-11-28T06:45:43.121Z,41.85
2018-11-28T06:48:14.114Z,37.57
2018-11-28T06:50:48.754Z,32.20
2018-11-28T06:56:35.368Z,30.57
2018-11-28T06:59:04.348Z,47.13
2018-11-28T07:01:33.297Z,38.50
2018-11-28T07:04:02.180Z,41.83
2018-11-28T07:06:31.107Z,50.00
2018-11-28T07:09:00.040Z,48.53
2018-11-28T07:11:28.933Z,40.73
2018-11-28T07:13:57.820Z,40.13
2018-11-28T07:16:27.176Z,44.50
2018-11-28T07:19:06.443Z,31.97
2018-11-28T07:21:35.699Z,29.85
2018-11-28T07:24:04.962Z,38.07
2018-11-28T07:26:33.996Z,67.47
2018-11-28T07:29:02.949Z,28.73
2018-11-28T07:31:31.822Z,37.93
2018-11-28T07:34:00.721Z,31.27
2018-11-28T07:36:29.614Z,32.88
2018-11-28T07:38:58.507Z,27.98
2018-11-28T07:41:27.901Z,34.13
2018-11-28T07:43:56.844Z,37.80
2018-11-28T07:46:25.746Z,39.40
2018-11-28T07:48:54.672Z,25.80
2018-11-28T07:51:23.617Z,26.40
2018-11-28T07:53:52.618Z,27.35
2018-11-28T07:56:21.519Z,27.62
2018-11-28T07:58:50.393Z,32.07
2018-11-28T08:01:19.276Z,25.50
2018-11-28T08:03:48.151Z,29.35
2018-11-28T08:06:17.106Z,25.93
2018-11-28T08:08:45.991Z,26.03
2018-11-28T08:11:14.919Z,36.60
2018-11-28T08:13:43.833Z,30.32
2018-11-28T08:16:12.805Z,29.50
2018-11-28T08:18:42.220Z,30.62
2018-11-28T08:21:10.622Z,29.30
2018-11-28T08:23:39.497Z,25.97
2018-11-28T08:26:08.425Z,27.27
2018-11-28T08:28:37.323Z,29.25
2018-11-28T08:31:06.474Z,27.37
2018-11-28T08:33:35.411Z,25.90
2018-11-28T08:36:04.329Z,27.47
2018-11-28T08:38:33.244Z,25.27
2018-11-28T08:41:02.195Z,29.80
2018-11-28T08:43:31.063Z,27.70
2018-11-28T08:46:00.190Z,26.97
2018-11-28T08:48:28.922Z,27.90
2018-11-28T08:50:57.817Z,24.27
2018-11-28T08:53:26.716Z,27.22
2018-11-28T08:55:55.638Z,28.05
2018-11-28T08:58:24.532Z,29.75
2018-11-28T09:00:53.406Z,29.70
2018-11-28T09:03:22.326Z,21.27
2018-11-28T09:05:51.240Z,16.97
2018-11-28T09:08:20.496Z,18.27
2018-11-28T09:10:49.391Z,16.37
2018-11-28T09:13:18.272Z,16.00
2018-11-28T09:15:47.192Z,15.93
2018-11-28T09:18:16.064Z,16.53
2018-11-28T09:20:44.930Z,16.50
2018-11-28T09:23:13.801Z,17.90
2018-11-28T09:25:42.679Z,17.73
2018-11-28T09:28:11.585Z,18.03
2018-11-28T09:30:40.464Z,16.90
2018-11-28T09:33:09.362Z,18.37
2018-11-28T09:35:38.229Z,17.40
2018-11-28T09:38:07.120Z,17.93
2018-11-28T09:40:36.018Z,18.03
2018-11-28T09:43:05.244Z,18.23
2018-11-28T09:45:34.144Z,18.53
2018-11-28T09:48:03.068Z,18.47
2018-11-28T09:50:31.981Z,18.80
2018-11-28T09:53:00.892Z,18.60
2018-11-28T09:55:29.748Z,20.57
2018-11-28T09:57:58.889Z,20.43
2018-11-28T10:00:28.533Z,20.00
2018-11-28T10:02:59.489Z,19.97
2018-11-28T10:05:32.532Z,20.20
2018-11-28T10:08:01.511Z,19.37
2018-11-28T10:10:30.431Z,20.50
2018-11-28T10:12:59.323Z,18.55
2018-11-28T10:15:28.965Z,20.17
2018-11-28T10:17:57.906Z,20.60
2018-11-28T10:20:26.760Z,20.43
2018-11-28T10:22:55.735Z,18.85
2018-11-28T10:25:27.743Z,20.40
2018-11-28T10:28:00.158Z,18.83
2018-11-28T10:30:31.103Z,19.13
2018-11-28T10:33:00.024Z,20.03
2018-11-28T10:35:29.144Z,20.43
2018-11-28T10:37:58.011Z,19.53
2018-11-28T10:40:26.904Z,18.23
2018-11-28T10:42:58.006Z,18.77
2018-11-28T10:45:28.011Z,18.77
2018-11-28T10:47:56.959Z,19.63
2018-11-28T10:50:25.930Z,18.40
2018-11-28T10:52:54.818Z,19.60
2018-11-28T10:55:24.580Z,17.70
2018-11-28T10:57:53.561Z,19.77
2018-11-28T11:00:29.970Z,18.63
2018-11-28T11:03:04.193Z,18.53
2018-11-28T11:05:38.499Z,18.50
2018-11-28T11:08:12.963Z,18.13
2018-11-28T11:10:47.277Z,19.13
2018-11-28T11:13:21.611Z,18.33
2018-11-28T11:15:56.221Z,18.50
2018-11-28T11:18:25.744Z,20.37
2018-11-28T11:20:54.707Z,19.90
2018-11-28T11:23:23.669Z,20.27
2018-11-28T11:25:53.128Z,20.47
2018-11-28T11:28:22.055Z,20.33
2018-11-28T11:30:51.068Z,19.77
2018-11-28T11:33:19.996Z,19.97
2018-11-28T11:35:48.900Z,19.83
2018-11-28T11:38:17.831Z,19.07
2018-11-28T11:40:46.755Z,20.97
2018-11-28T11:43:15.669Z,20.47
2018-11-28T11:45:44.565Z,20.53
2018-11-28T11:48:13.481Z,22.10
2018-11-28T11:50:42.373Z,20.83
2018-11-28T11:53:11.285Z,20.87
2018-11-28T11:55:40.160Z,21.03
2018-11-28T11:58:09.136Z,21.17
2018-11-28T12:00:40.912Z,22.87
2018-11-28T12:03:13.779Z,21.43
2018-11-28T12:05:47.471Z,21.70
2018-11-28T12:08:16.358Z,20.63
2018-11-28T12:10:45.269Z,21.57
2018-11-28T12:13:14.158Z,21.37
2018-11-28T12:15:43.065Z,20.90
2018-11-28T12:18:11.958Z,20.13
2018-11-28T12:20:44.425Z,21.33
2018-11-28T12:23:13.306Z,20.57
2018-11-28T12:25:42.196Z,21.73
2018-11-28T12:28:11.143Z,20.60
2018-11-28T12:30:40.111Z,20.43
2018-11-28T12:33:09.040Z,19.77
2018-11-28T12:35:37.925Z,19.60
2018-11-28T12:38:07.124Z,17.97
2018-11-28T12:40:36.446Z,18.70
2018-11-28T12:43:07.719Z,18.37
2018-11-28T12:45:38.209Z,18.93
2018-11-28T12:48:07.140Z,18.70
2018-11-28T12:50:36.109Z,20.57
2018-11-28T12:53:05.928Z,18.53
2018-11-28T12:55:36.073Z,17.63
2018-11-28T12:58:06.406Z,17.63
2018-11-28T13:00:35.829Z,17.93
2018-11-28T13:03:06.034Z,17.63
2018-11-28T13:05:34.970Z,17.80
2018-11-28T13:08:03.959Z,18.07
2018-11-28T13:10:34.308Z,18.37
2018-11-28T13:13:03.508Z,18.52
2018-11-28T13:15:32.498Z,20.03
2018-11-28T13:18:01.406Z,19.17
2018-11-28T13:20:30.317Z,18.87
2018-11-28T13:22:59.181Z,19.13
2018-11-28T13:25:28.352Z,18.73
2018-11-28T13:27:57.430Z,17.10
2018-11-28T13:30:26.625Z,17.07
2018-11-28T13:32:55.865Z,17.53
2018-11-28T13:35:25.885Z,17.20
2018-11-28T13:37:57.077Z,18.83
2018-11-28T13:40:25.986Z,18.73
2018-11-28T13:42:54.909Z,17.55
2018-11-28T13:45:25.202Z,17.87
2018-11-28T13:47:54.935Z,17.63
2018-11-28T13:50:23.877Z,17.83
2018-11-28T13:52:53.665Z,18.43
2018-11-28T13:55:39.564Z,18.33
2018-11-28T13:57:59.028Z,18.83
2018-11-28T14:00:27.927Z,17.53
2018-11-28T14:02:56.996Z,18.30
2018-11-28T14:05:25.859Z,19.10
2018-11-28T14:07:54.817Z,19.27
2018-11-28T14:10:23.707Z,18.83
2018-11-28T14:12:52.591Z,17.87
2018-11-28T14:15:22.191Z,18.27
2018-11-28T14:18:09.388Z,18.40
2018-11-28T14:20:38.333Z,17.53
2018-11-28T14:23:07.245Z,18.07
2018-11-28T14:25:36.264Z,17.67
2018-11-28T14:28:05.616Z,17.77
2018-11-28T14:30:34.545Z,17.73
2018-11-28T14:33:03.445Z,18.47
2018-11-28T14:35:32.733Z,19.60
2018-11-28T14:38:01.652Z,19.67
2018-11-28T14:40:30.580Z,19.07
2018-11-28T14:42:59.964Z,19.57
2018-11-28T14:45:29.601Z,22.40
2018-11-28T14:47:58.604Z,25.87
2018-11-28T14:50:28.499Z,22.67
2018-11-28T14:53:00.308Z,21.60
2018-11-28T14:55:30.298Z,21.73
2018-11-28T14:57:59.228Z,21.33
2018-11-28T15:00:29.337Z,21.10
2018-11-28T15:06:15.085Z,20.10
2018-11-28T15:08:43.952Z,20.20
2018-11-28T15:11:13.806Z,19.93
2018-11-28T15:13:43.201Z,18.87
2018-11-28T15:16:12.109Z,20.27
2018-11-28T15:18:41.118Z,17.97
2018-11-28T15:21:10.866Z,19.23
2018-11-28T15:23:40.297Z,18.37
2018-11-28T15:26:09.372Z,19.03
2018-11-28T15:28:38.305Z,20.17
2018-11-28T15:31:07.224Z,19.23
2018-11-28T15:33:36.127Z,20.30
2018-11-28T15:36:05.113Z,22.43
2018-11-28T15:38:34.009Z,22.00
2018-11-28T15:41:02.890Z,22.87
2018-11-28T15:43:31.772Z,24.37
2018-11-28T15:46:00.678Z,22.93
2018-11-28T15:48:29.562Z,23.60
2018-11-28T15:50:58.445Z,24.63
2018-11-28T15:53:27.356Z,23.93
2018-11-28T15:55:56.329Z,21.93
2018-11-28T15:58:25.177Z,22.93
2018-11-28T16:00:54.057Z,22.17
2018-11-28T16:03:22.974Z,24.30
2018-11-28T16:05:51.837Z,23.63
2018-11-28T16:08:20.950Z,25.03
2018-11-28T16:10:49.884Z,21.90
2018-11-28T16:13:19.283Z,21.33
2018-11-28T16:15:57.367Z,24.30
2018-11-28T16:18:26.267Z,24.47
2018-11-28T16:20:55.212Z,22.97
2018-11-28T16:23:24.098Z,24.57
2018-11-28T16:25:53.021Z,24.83
2018-11-28T16:28:21.914Z,22.50
2018-11-28T16:30:50.837Z,21.13
2018-11-28T16:33:19.941Z,22.27
2018-11-28T16:35:48.852Z,20.80
2018-11-28T16:38:17.722Z,20.80
2018-11-28T16:40:46.621Z,23.37
2018-11-28T16:43:15.528Z,22.77
2018-11-28T16:45:44.398Z,21.60
2018-11-28T16:48:13.298Z,21.87
2018-11-28T16:50:42.217Z,21.53
2018-11-28T16:53:11.094Z,22.40
2018-11-28T16:55:39.980Z,21.90
2018-11-28T16:58:08.882Z,27.37
2018-11-28T17:00:39.812Z,22.60
2018-11-28T17:03:08.696Z,27.70
2018-11-28T17:05:37.720Z,23.77
2018-11-28T17:08:08.217Z,22.47
2018-11-28T17:10:37.125Z,21.07
2018-11-28T17:13:06.724Z,24.37
2018-11-28T17:15:35.609Z,22.63
2018-11-28T17:18:04.806Z,21.40
2018-11-28T17:20:33.668Z,21.80
2018-11-28T17:23:02.604Z,22.67
2018-11-28T17:25:32.387Z,23.07
2018-11-28T17:28:01.279Z,22.17
2018-11-28T17:30:30.684Z,22.40
2018-11-28T17:32:59.572Z,24.97
2018-11-28T17:35:28.487Z,25.60
2018-11-28T17:37:57.380Z,22.70
2018-11-28T17:40:27.394Z,22.53
2018-11-28T17:42:57.509Z,20.83
2018-11-28T17:45:26.949Z,22.23
2018-11-28T17:47:55.814Z,23.67
2018-11-28T17:50:25.618Z,22.43
2018-11-28T17:53:03.033Z,23.47
2018-11-28T17:55:34.428Z,29.53
2018-11-28T17:58:03.396Z,23.43
2018-11-28T18:00:32.277Z,23.10
2018-11-28T18:03:04.088Z,24.87
2018-11-28T18:05:33.997Z,25.93
2018-11-28T18:08:02.866Z,27.03
2018-11-28T18:10:31.781Z,25.53
2018-11-28T18:13:09.098Z,25.73
2018-11-28T18:15:38.441Z,24.20
2018-11-28T18:18:08.604Z,24.70
2018-11-28T18:20:37.550Z,22.20
2018-11-28T18:23:08.544Z,25.70
2018-11-28T18:25:38.286Z,23.90
2018-11-28T18:28:08.050Z,24.30
2018-11-28T18:30:37.810Z,25.97
2018-11-28T18:33:07.892Z,25.67
2018-11-28T18:35:36.872Z,26.23
2018-11-28T18:38:05.945Z,24.80
2018-11-28T18:40:34.938Z,25.53
2018-11-28T18:43:03.833Z,23.03
2018-11-28T18:45:34.066Z,25.57
2018-11-28T18:48:03.002Z,24.33
2018-11-28T18:50:31.937Z,24.17
2018-11-28T18:53:00.802Z,25.50
2018-11-28T18:55:29.698Z,24.77
2018-11-28T18:57:58.561Z,26.00
2018-11-28T19:00:27.869Z,23.17
2018-11-28T19:02:57.038Z,23.40
2018-11-28T19:05:25.925Z,24.87
2018-11-28T19:07:54.876Z,26.40
2018-11-28T19:10:26.658Z,25.27
2018-11-28T19:12:53.881Z,24.03
2018-11-28T19:15:23.873Z,24.83
2018-11-28T19:17:52.999Z,23.57
2018-11-28T19:20:22.556Z,24.93
2018-11-28T19:22:52.312Z,23.63
2018-11-28T19:25:22.351Z,23.40
2018-11-28T19:27:51.249Z,23.50
2018-11-28T19:30:31.170Z,23.47
2018-11-28T19:32:58.378Z,24.53
2018-11-28T19:35:27.265Z,22.47
2018-11-28T19:37:56.185Z,23.43
2018-11-28T19:40:27.495Z,25.93
2018-11-28T19:42:56.384Z,26.10
2018-11-28T19:45:25.879Z,25.63
2018-11-28T19:47:54.802Z,28.20
2018-11-28T19:50:28.506Z,25.70
2018-11-28T19:52:57.434Z,23.10
2018-11-28T19:55:26.317Z,22.40
2018-11-28T19:57:55.227Z,22.67
2018-11-28T20:00:24.140Z,23.27
2018-11-28T20:02:53.045Z,23.43
2018-11-28T20:05:22.134Z,21.47
2018-11-28T20:07:51.395Z,24.90
2018-11-28T20:10:22.398Z,23.20
2018-11-28T20:12:51.590Z,24.37
2018-11-28T20:15:29.210Z,24.03
2018-11-28T20:17:58.265Z,24.67
2018-11-28T20:20:27.211Z,24.60
2018-11-28T20:22:56.081Z,24.85
2018-11-28T20:25:25.446Z,25.50
2018-11-28T20:27:59.424Z,23.43
2018-11-28T20:30:35.941Z,23.00
2018-11-28T20:33:04.892Z,25.40
2018-11-28T20:35:33.791Z,24.43
2018-11-28T20:38:02.789Z,23.97
2018-11-28T20:40:31.770Z,23.97
2018-11-28T20:43:00.668Z,22.83
2018-11-28T20:45:29.608Z,23.27
2018-11-28T20:47:58.549Z,24.37
2018-11-28T20:50:30.579Z,23.80
2018-11-28T20:53:04.250Z,26.77
2018-11-28T20:55:33.228Z,25.43
2018-11-28T20:58:02.119Z,25.43
2018-11-28T21:00:31.142Z,26.17
2018-11-28T21:03:00.166Z,23.57
2018-11-28T21:05:29.109Z,23.50
2018-11-28T21:07:58.114Z,24.13
2018-11-28T21:10:41.688Z,27.17
2018-11-28T21:13:12.683Z,23.80
2018-11-28T21:15:42.865Z,23.47
2018-11-28T21:18:11.829Z,24.70
2018-11-28T21:20:42.188Z,24.17
2018-11-28T21:23:12.514Z,26.90
2018-11-28T21:25:41.491Z,25.30
2018-11-28T21:28:10.518Z,27.07
2018-11-28T21:30:39.515Z,27.17
2018-11-28T21:33:09.466Z,24.40
2018-11-28T21:35:39.722Z,25.27
2018-11-28T21:38:09.088Z,24.23
2018-11-28T21:40:37.997Z,23.23
2018-11-28T21:43:07.178Z,24.50
2018-11-28T21:45:36.861Z,24.87
2018-11-28T21:48:06.342Z,24.30
2018-11-28T21:50:35.232Z,25.50
2018-11-28T21:53:04.308Z,23.65
2018-11-28T21:55:33.220Z,24.67
2018-11-28T21:58:02.710Z,24.23
2018-11-28T22:00:31.679Z,25.37
2018-11-28T22:03:00.601Z,23.00
2018-11-28T22:05:29.546Z,21.43
2018-11-28T22:07:58.548Z,21.10
2018-11-28T22:10:27.445Z,23.63
2018-11-28T22:12:56.344Z,24.20
2018-11-28T22:15:25.303Z,23.60
2018-11-28T22:17:56.213Z,24.07
2018-11-28T22:20:25.797Z,22.27
2018-11-28T22:22:54.729Z,22.37
2018-11-28T22:25:26.713Z,22.10
2018-11-28T22:27:55.904Z,24.17
2018-11-28T22:30:26.741Z,21.50
2018-11-28T22:32:55.704Z,21.33
2018-11-28T22:35:24.823Z,23.00
2018-11-28T22:37:53.725Z,23.50
2018-11-28T22:40:24.475Z,23.93
2018-11-28T22:42:53.474Z,23.97
2018-11-28T22:45:23.558Z,24.47
2018-11-28T22:47:52.433Z,25.70
2018-11-28T22:50:21.310Z,23.63
2018-11-28T22:52:50.799Z,22.97
2018-11-28T22:55:19.713Z,25.23
2018-11-28T22:57:48.632Z,25.50
2018-11-28T23:00:27.048Z,26.20
2018-11-28T23:02:57.462Z,23.63
2018-11-28T23:05:29.325Z,24.77
2018-11-28T23:08:00.204Z,24.93
2018-11-28T23:10:29.197Z,25.50
2018-11-28T23:12:58.115Z,23.17
2018-11-28T23:15:27.126Z,23.57
2018-11-28T23:17:56.000Z,25.23
2018-11-28T23:20:24.904Z,24.77
2018-11-28T23:22:53.782Z,24.60
2018-11-28T23:25:22.667Z,27.03
2018-11-28T23:27:51.552Z,29.23
2018-11-28T23:30:21.371Z,27.00
2018-11-28T23:32:52.278Z,24.40
2018-11-28T23:35:21.273Z,24.70
2018-11-28T23:37:50.392Z,24.60
2018-11-28T23:40:20.193Z,26.87
2018-11-28T23:42:49.331Z,25.13
2018-11-28T23:45:18.328Z,24.77
2018-11-28T23:47:47.317Z,23.30
2018-11-28T23:50:19.139Z,24.23
2018-11-28T23:52:48.442Z,24.10
2018-11-28T23:55:19.178Z,24.87
2018-11-28T23:57:48.165Z,23.67
